sensor_id;sensor_type;location;lat;lon;timestamp;pressure;altitude;pressure_sealevel;temperature;humidity
80869;BME280;70295;40.182;44.498;2023-07-16T00:01:19;89955.94;;;24.23;35.84101
80869;BME280;70295;40.182;44.498;2023-07-16T00:03:19;89957.38;;;24.23;35.85273
80869;BME280;70295;40.182;44.498;2023-07-16T00:05:19;89953.72;;;24.24;35.85273
80869;BME280;70295;40.182;44.498;2023-07-16T00:07:19;89954.56;;;24.14;35.95918
80869;BME280;70295;40.182;44.498;2023-07-16T00:09:18;89954.69;;;24.15;36.01777
80869;BME280;70295;40.182;44.498;2023-07-16T00:11:19;89954.14;;;24.18;36.00801
80869;BME280;70295;40.182;44.498;2023-07-16T00:13:19;89952.07;;;24.21;35.96504
80869;BME280;70295;40.182;44.498;2023-07-16T00:15:18;89951.76;;;24.15;35.93769
80869;BME280;70295;40.182;44.498;2023-07-16T00:17:19;89956.22;;;24.07;36.09101
80869;BME280;70295;40.182;44.498;2023-07-16T00:19:18;89954.73;;;24.05;36.18086
80869;BME280;70295;40.182;44.498;2023-07-16T00:21:18;89955.84;;;24.04;36.10078
80869;BME280;70295;40.182;44.498;2023-07-16T00:23:19;89955.08;;;24.02;36.17793
80869;BME280;70295;40.182;44.498;2023-07-16T00:25:18;89955.5;;;23.99;36.16426
80869;BME280;70295;40.182;44.498;2023-07-16T00:27:19;89955.14;;;23.89;36.19062
80869;BME280;70295;40.182;44.498;2023-07-16T00:29:19;89955.36;;;23.86;36.32441
80869;BME280;70295;40.182;44.498;2023-07-16T00:31:18;89953.42;;;23.85;36.34785
80869;BME280;70295;40.182;44.498;2023-07-16T00:33:19;89952.13;;;23.8;36.38887
80869;BME280;70295;40.182;44.498;2023-07-16T00:35:18;89951.59;;;23.73;36.49726
80869;BME280;70295;40.182;44.498;2023-07-16T00:37:19;89954.53;;;23.74;36.62422
80869;BME280;70295;40.182;44.498;2023-07-16T00:39:19;89952.43;;;23.76;36.59101
80869;BME280;70295;40.182;44.498;2023-07-16T00:41:18;89955.16;;;23.81;36.53828
80869;BME280;70295;40.182;44.498;2023-07-16T00:43:19;89953.63;;;23.77;36.47773
80869;BME280;70295;40.182;44.498;2023-07-16T00:45:18;89954.81;;;23.68;36.60664
80869;BME280;70295;40.182;44.498;2023-07-16T00:47:18;89952.8;;;23.58;36.70137
80869;BME280;70295;40.182;44.498;2023-07-16T00:49:19;89954.31;;;23.49;36.88887
80869;BME280;70295;40.182;44.498;2023-07-16T00:51:18;89956.3;;;23.49;36.94551
80869;BME280;70295;40.182;44.498;2023-07-16T00:53:19;89956.76;;;23.51;36.93574
80869;BME280;70295;40.182;44.498;2023-07-16T00:55:19;89955.88;;;23.53;36.88008
80869;BME280;70295;40.182;44.498;2023-07-16T00:57:18;89956.25;;;23.5;36.82051
80869;BME280;70295;40.182;44.498;2023-07-16T00:59:19;89959.52;;;23.42;36.92793
80869;BME280;70295;40.182;44.498;2023-07-16T01:01:18;89959.06;;;23.39;37.02851
80869;BME280;70295;40.182;44.498;2023-07-16T01:03:18;89962.49;;;23.34;37.03535
80869;BME280;70295;40.182;44.498;2023-07-16T01:05:19;89964.31;;;23.29;37.16719
80869;BME280;70295;40.182;44.498;2023-07-16T01:07:18;89964.97;;;23.3;37.16914
80869;BME280;70295;40.182;44.498;2023-07-16T01:09:19;89966.73;;;23.25;37.11934
80869;BME280;70295;40.182;44.498;2023-07-16T01:11:18;89965.91;;;23.19;37.30684
80869;BME280;70295;40.182;44.498;2023-07-16T01:13:18;89963.5;;;23.06;37.38789
80869;BME280;70295;40.182;44.498;2023-07-16T01:15:18;89964.02;;;23.01;37.49824
80869;BME280;70295;40.182;44.498;2023-07-16T01:17:18;89967.64;;;22.98;37.65547
80869;BME280;70295;40.182;44.498;2023-07-16T01:19:18;89970.38;;;23.01;37.6457
80869;BME280;70295;40.182;44.498;2023-07-16T01:21:19;89974.04;;;23.03;37.48848
80869;BME280;70295;40.182;44.498;2023-07-16T01:31:18;89978.73;;;23.01;37.53144
80869;BME280;70295;40.182;44.498;2023-07-16T01:33:18;89980.01;;;22.95;37.57246
80869;BME280;70295;40.182;44.498;2023-07-16T01:35:18;89979.21;;;22.86;37.66719
80869;BME280;70295;40.182;44.498;2023-07-16T01:37:18;89973.69;;;22.65;37.88789
80869;BME280;70295;40.182;44.498;2023-07-16T01:39:18;89977.37;;;22.59;37.99824
80869;BME280;70295;40.182;44.498;2023-07-16T01:41:19;89974.56;;;22.58;38.09883
80869;BME280;70295;40.182;44.498;2023-07-16T01:43:18;89978.48;;;22.59;38.08809
80869;BME280;70295;40.182;44.498;2023-07-16T01:45:18;89977.35;;;22.57;38.14277
80869;BME280;70295;40.182;44.498;2023-07-16T01:49:18;89972.73;;;22.55;38.1418
80869;BME280;70295;40.182;44.498;2023-07-16T01:51:19;89976.83;;;22.54;38.1291
80869;BME280;70295;40.182;44.498;2023-07-16T01:53:18;89979.63;;;22.5;38.17207
80869;BME280;70295;40.182;44.498;2023-07-16T01:55:18;89982.91;;;22.47;38.21504
80869;BME280;70295;40.182;44.498;2023-07-16T01:57:18;89985.11;;;22.49;38.20527
80869;BME280;70295;40.182;44.498;2023-07-16T01:59:18;89984.38;;;22.49;38.21699
80869;BME280;70295;40.182;44.498;2023-07-16T02:01:18;89989.97;;;22.47;38.21504
80869;BME280;70295;40.182;44.498;2023-07-16T02:03:18;89987.06;;;22.47;38.24922
80869;BME280;70295;40.182;44.498;2023-07-16T02:05:19;89989.02;;;22.42;38.21113
80869;BME280;70295;40.182;44.498;2023-07-16T02:07:19;89990.47;;;22.33;38.37422
80869;BME280;70295;40.182;44.498;2023-07-16T02:09:18;89991.61;;;22.36;38.45527
80869;BME280;70295;40.182;44.498;2023-07-16T02:11:18;89992.05;;;22.46;38.3166
80869;BME280;70295;40.182;44.498;2023-07-16T02:13:18;89995.55;;;22.47;38.19258
80869;BME280;70295;40.182;44.498;2023-07-16T02:15:18;89993.74;;;22.45;38.25898
80869;BME280;70295;40.182;44.498;2023-07-16T02:17:18;89996.66;;;22.5;38.25215
80869;BME280;70295;40.182;44.498;2023-07-16T02:19:18;89998.53;;;22.55;38.16523
80869;BME280;70295;40.182;44.498;2023-07-16T02:21:18;90000.95;;;22.54;38.07246
80869;BME280;70295;40.182;44.498;2023-07-16T02:23:18;89998.16;;;22.49;38.06855
80869;BME280;70295;40.182;44.498;2023-07-16T02:25:18;90003.99;;;22.43;38.23457
80869;BME280;70295;40.182;44.498;2023-07-16T02:27:18;90002.52;;;22.44;38.27949
80869;BME280;70295;40.182;44.498;2023-07-16T02:29:18;90008.06;;;22.36;38.30781
80869;BME280;70295;40.182;44.498;2023-07-16T02:31:18;90003.75;;;22.36;38.38691
80869;BME280;70295;40.182;44.498;2023-07-16T02:33:18;90007.31;;;22.43;38.37129
80869;BME280;70295;40.182;44.498;2023-07-16T02:35:19;90008.95;;;22.53;38.27754
80869;BME280;70295;40.182;44.498;2023-07-16T02:37:19;90011.47;;;22.62;38.13691
80869;BME280;70295;40.182;44.498;2023-07-16T02:39:18;90010.83;;;22.64;37.97871
80869;BME280;70295;40.182;44.498;2023-07-16T02:41:18;90013.5;;;22.59;37.93965
80869;BME280;70295;40.182;44.498;2023-07-16T02:43:19;90013.14;;;22.48;37.99922
80869;BME280;70295;40.182;44.498;2023-07-16T02:45:18;90005.12;;;22.31;38.17793
80869;BME280;70295;40.182;44.498;2023-07-16T02:47:18;90005.97;;;22.27;38.36738
80869;BME280;70295;40.182;44.498;2023-07-16T02:49:18;90002.8;;;22.28;38.44941
80869;BME280;70295;40.182;44.498;2023-07-16T02:51:18;90004.59;;;22.25;38.4123
80869;BME280;70295;40.182;44.498;2023-07-16T02:53:18;90005.24;;;22.21;38.4543
80869;BME280;70295;40.182;44.498;2023-07-16T02:55:18;90008.94;;;22.2;38.62324
80869;BME280;70295;40.182;44.498;2023-07-16T02:57:18;90009.05;;;22.24;38.64961
80869;BME280;70295;40.182;44.498;2023-07-16T02:59:18;90012.87;;;22.26;38.57246
80869;BME280;70295;40.182;44.498;2023-07-16T03:01:18;90007.72;;;22.25;38.6623
80869;BME280;70295;40.182;44.498;2023-07-16T03:03:18;90007.55;;;22.3;38.62129
80869;BME280;70295;40.182;44.498;2023-07-16T03:05:18;90003.06;;;22.35;38.64961
80869;BME280;70295;40.182;44.498;2023-07-16T03:07:18;90004.78;;;22.42;38.60957
80869;BME280;70295;40.182;44.498;2023-07-16T03:09:19;90011.64;;;22.51;38.57148
80869;BME280;70295;40.182;44.498;2023-07-16T03:11:18;90010.38;;;22.57;38.45039
80869;BME280;70295;40.182;44.498;2023-07-16T03:13:18;90009.13;;;22.62;38.38691
80869;BME280;70295;40.182;44.498;2023-07-16T03:15:18;90009.2;;;22.69;38.25703
80869;BME280;70295;40.182;44.498;2023-07-16T03:17:18;90014.65;;;22.74;38.13691
80869;BME280;70295;40.182;44.498;2023-07-16T03:19:18;90016.58;;;22.78;38.02559
80869;BME280;70295;40.182;44.498;2023-07-16T03:21:18;90009.44;;;22.74;37.96504
80869;BME280;70295;40.182;44.498;2023-07-16T03:23:18;90013.06;;;22.68;38.03926
80869;BME280;70295;40.182;44.498;2023-07-16T03:25:18;90009.86;;;22.64;37.95625
80869;BME280;70295;40.182;44.498;2023-07-16T03:27:18;90012.8;;;22.67;38.04902
80869;BME280;70295;40.182;44.498;2023-07-16T03:29:18;90011.7;;;22.72;37.98555
80869;BME280;70295;40.182;44.498;2023-07-16T03:31:18;90013.58;;;22.71;37.9748
80869;BME280;70295;40.182;44.498;2023-07-16T03:33:18;90006.64;;;22.77;37.97871
80869;BME280;70295;40.182;44.498;2023-07-16T03:35:18;90005.98;;;22.9;38.09199
80869;BME280;70295;40.182;44.498;2023-07-16T03:37:18;90001.89;;;23.08;37.86934
80869;BME280;70295;40.182;44.498;2023-07-16T03:39:18;90000.43;;;23.13;37.74824
80869;BME280;70295;40.182;44.498;2023-07-16T03:41:18;90005.28;;;23.14;37.55391
80869;BME280;70295;40.182;44.498;2023-07-16T03:43:18;90004.13;;;23.09;37.53926
80869;BME280;70295;40.182;44.498;2023-07-16T03:45:18;90010.86;;;23.04;37.50019
80869;BME280;70295;40.182;44.498;2023-07-16T03:47:18;90004.67;;;22.96;37.49336
80869;BME280;70295;40.182;44.498;2023-07-16T03:49:18;90006.31;;;22.96;37.61934
80869;BME280;70295;40.182;44.498;2023-07-16T03:51:18;90009.94;;;23.01;37.81758
80869;BME280;70295;40.182;44.498;2023-07-16T03:53:18;90005.1;;;23.14;37.7707
80869;BME280;70295;40.182;44.498;2023-07-16T03:55:18;90012.25;;;23.26;37.57637
80869;BME280;70295;40.182;44.498;2023-07-16T03:57:18;90011.58;;;23.25;37.56465
80869;BME280;70295;40.182;44.498;2023-07-16T03:59:18;90013.98;;;23.27;37.41816
80869;BME280;70295;40.182;44.498;2023-07-16T04:01:18;90008.79;;;23.31;37.50117
80869;BME280;70295;40.182;44.498;2023-07-16T04:03:18;90016.44;;;23.34;37.69746
80869;BME280;70295;40.182;44.498;2023-07-16T04:05:18;90019.93;;;23.39;37.78144
80869;BME280;70295;40.182;44.498;2023-07-16T04:07:18;90024.64;;;23.44;37.69453
80869;BME280;70295;40.182;44.498;2023-07-16T04:09:18;90026.94;;;23.45;37.53535
80869;BME280;70295;40.182;44.498;2023-07-16T04:11:18;90029.13;;;23.44;37.46601
80869;BME280;70295;40.182;44.498;2023-07-16T04:13:18;90034.09;;;23.44;37.48945
80869;BME280;70295;40.182;44.498;2023-07-16T04:15:18;90034.69;;;23.43;37.43086
80869;BME280;70295;40.182;44.498;2023-07-16T04:17:18;90029.09;;;23.42;37.35078
80869;BME280;70295;40.182;44.498;2023-07-16T04:19:18;90038.42;;;23.42;37.3166
80869;BME280;70295;40.182;44.498;2023-07-16T04:21:18;90036.48;;;23.38;37.30195
80869;BME280;70295;40.182;44.498;2023-07-16T04:23:18;90038.71;;;23.38;37.31269
80869;BME280;70295;40.182;44.498;2023-07-16T04:25:18;90040.55;;;23.4;36.96113
80869;BME280;70295;40.182;44.498;2023-07-16T04:27:18;90041.13;;;23.26;37.34785
80869;BME280;70295;40.182;44.498;2023-07-16T04:29:18;90045.68;;;23.34;37.46894
80869;BME280;70295;40.182;44.498;2023-07-16T04:31:18;90049.34;;;23.44;37.39766
80869;BME280;70295;40.182;44.498;2023-07-16T04:33:18;90046.83;;;23.51;37.21016
80869;BME280;70295;40.182;44.498;2023-07-16T04:35:18;90052.17;;;23.53;37.07441
80869;BME280;70295;40.182;44.498;2023-07-16T04:37:18;90043.92;;;23.46;37.14863
80869;BME280;70295;40.182;44.498;2023-07-16T04:39:18;90049.19;;;23.46;37.13789
80869;BME280;70295;40.182;44.498;2023-07-16T04:41:18;90042.47;;;23.46;37.12617
80869;BME280;70295;40.182;44.498;2023-07-16T04:43:18;90041.23;;;23.48;37.01387
80869;BME280;70295;40.182;44.498;2023-07-16T04:45:18;90042.25;;;23.49;37.02559
80869;BME280;70295;40.182;44.498;2023-07-16T04:47:18;90044;;;23.53;36.97187
80869;BME280;70295;40.182;44.498;2023-07-16T04:49:18;90046.7;;;23.48;36.80684
80869;BME280;70295;40.182;44.498;2023-07-16T04:51:18;90042.8;;;23.18;37.12422
80869;BME280;70295;40.182;44.498;2023-07-16T04:53:18;90039.63;;;23.02;37.4875
80869;BME280;70295;40.182;44.498;2023-07-16T04:55:18;90040.91;;;23.05;37.75215
80869;BME280;70295;40.182;44.498;2023-07-16T04:57:18;90038.63;;;23.09;37.60762
80869;BME280;70295;40.182;44.498;2023-07-16T04:59:18;90039.72;;;23.12;37.80488
80869;BME280;70295;40.182;44.498;2023-07-16T05:01:18;90040.4;;;23.21;37.85762
80869;BME280;70295;40.182;44.498;2023-07-16T05:03:18;90039.99;;;23.29;37.78437
80869;BME280;70295;40.182;44.498;2023-07-16T05:05:18;90038.61;;;23.34;37.65156
80869;BME280;70295;40.182;44.498;2023-07-16T05:07:18;90036.3;;;23.38;37.65547
80869;BME280;70295;40.182;44.498;2023-07-16T05:09:18;90037.89;;;23.44;37.66035
80869;BME280;70295;40.182;44.498;2023-07-16T05:11:18;90042.98;;;23.49;37.58516
80869;BME280;70295;40.182;44.498;2023-07-16T05:13:18;90036.58;;;23.52;37.50801
80869;BME280;70295;40.182;44.498;2023-07-16T05:15:18;90031.27;;;23.55;37.3166
80869;BME280;70295;40.182;44.498;2023-07-16T05:17:18;90035.25;;;23.56;37.35078
80869;BME280;70295;40.182;44.498;2023-07-16T05:19:18;90034.38;;;23.58;37.28437
80869;BME280;70295;40.182;44.498;2023-07-16T05:21:18;90026.47;;;23.59;37.19453
80869;BME280;70295;40.182;44.498;2023-07-16T05:23:18;90027.55;;;23.59;37.24043
80869;BME280;70295;40.182;44.498;2023-07-16T05:25:18;90025.49;;;23.6;37.30976
80869;BME280;70295;40.182;44.498;2023-07-16T05:27:18;90028.97;;;23.62;37.17402
80869;BME280;70295;40.182;44.498;2023-07-16T05:29:18;90031.61;;;23.59;37.27363
80869;BME280;70295;40.182;44.498;2023-07-16T05:31:18;90029.23;;;23.56;37.4084
80869;BME280;70295;40.182;44.498;2023-07-16T05:33:18;90027.98;;;23.56;37.3625
80869;BME280;70295;40.182;44.498;2023-07-16T05:35:18;90028.11;;;23.59;37.31953
80869;BME280;70295;40.182;44.498;2023-07-16T05:37:18;90028.97;;;23.62;37.19648
80869;BME280;70295;40.182;44.498;2023-07-16T05:39:18;90025.45;;;23.63;37.13984
80869;BME280;70295;40.182;44.498;2023-07-16T05:41:18;90030.45;;;23.65;37.1418
80869;BME280;70295;40.182;44.498;2023-07-16T05:43:18;90030.19;;;23.61;37.02461
80869;BME280;70295;40.182;44.498;2023-07-16T05:45:18;90028.11;;;23.54;37.21211
80869;BME280;70295;40.182;44.498;2023-07-16T05:47:18;90022.13;;;23.54;37.25801
80869;BME280;70295;40.182;44.498;2023-07-16T05:49:18;90021.5;;;23.52;37.22187
80869;BME280;70295;40.182;44.498;2023-07-16T05:51:18;90016;;;23.48;37.10371
80869;BME280;70295;40.182;44.498;2023-07-16T05:55:18;90018.05;;;23.42;37.46504
80869;BME280;70295;40.182;44.498;2023-07-16T05:57:18;90016.79;;;23.39;37.53047
80869;BME280;70295;40.182;44.498;2023-07-16T05:59:18;90015.25;;;23.35;37.55
80869;BME280;70295;40.182;44.498;2023-07-16T06:01:18;90012.87;;;23.28;37.81758
80869;BME280;70295;40.182;44.498;2023-07-16T06:03:18;90011.71;;;23.26;37.67891
80869;BME280;70295;40.182;44.498;2023-07-16T06:05:18;90012.19;;;23.25;37.78047
80869;BME280;70295;40.182;44.498;2023-07-16T06:07:18;90008.62;;;23.29;37.73945
80869;BME280;70295;40.182;44.498;2023-07-16T06:09:18;90001.84;;;23.32;37.69551
80869;BME280;70295;40.182;44.498;2023-07-16T06:11:18;90004.19;;;23.38;37.71211
80869;BME280;70295;40.182;44.498;2023-07-16T06:13:18;90003.9;;;23.47;37.63984
80869;BME280;70295;40.182;44.498;2023-07-16T06:15:18;90004.81;;;23.54;37.50898
80869;BME280;70295;40.182;44.498;2023-07-16T06:17:18;90004.41;;;23.63;37.46016
80869;BME280;70295;40.182;44.498;2023-07-16T06:19:18;90002.64;;;23.7;37.2375
80869;BME280;70295;40.182;44.498;2023-07-16T06:21:18;89999.33;;;23.76;36.96797
80869;BME280;70295;40.182;44.498;2023-07-16T06:23:18;90000.7;;;23.77;36.68379
80869;BME280;70295;40.182;44.498;2023-07-16T06:25:18;90000.09;;;23.78;36.63887
80869;BME280;70295;40.182;44.498;2023-07-16T06:27:18;89996.37;;;23.79;36.5373
80869;BME280;70295;40.182;44.498;2023-07-16T06:29:18;89997.61;;;23.82;36.48262
80869;BME280;70295;40.182;44.498;2023-07-16T06:31:18;89989.77;;;23.88;36.48652
80869;BME280;70295;40.182;44.498;2023-07-16T06:33:18;89992.06;;;23.94;36.45723
80869;BME280;70295;40.182;44.498;2023-07-16T06:35:18;89995.34;;;24.01;36.4875
80869;BME280;70295;40.182;44.498;2023-07-16T06:37:18;89996.15;;;24.1;36.425
80869;BME280;70295;40.182;44.498;2023-07-16T06:39:18;89991.58;;;24.16;36.26973
80869;BME280;70295;40.182;44.498;2023-07-16T06:41:18;89993.63;;;24.2;36.37617
80869;BME280;70295;40.182;44.498;2023-07-16T06:43:18;89994.15;;;24.28;36.34883
80869;BME280;70295;40.182;44.498;2023-07-16T06:45:18;89992.78;;;24.37;36.23066
80869;BME280;70295;40.182;44.498;2023-07-16T06:47:18;89995.69;;;24.45;36.06465
80869;BME280;70295;40.182;44.498;2023-07-16T06:49:18;89996.4;;;24.52;36.00312
80869;BME280;70295;40.182;44.498;2023-07-16T06:51:18;89992.55;;;24.57;35.99531
80869;BME280;70295;40.182;44.498;2023-07-16T06:53:18;89991.66;;;24.62;35.90742
80869;BME280;70295;40.182;44.498;2023-07-16T06:55:18;89987.32;;;24.67;35.79707
80869;BME280;70295;40.182;44.498;2023-07-16T06:57:18;89988.8;;;24.71;35.8459
80869;BME280;70295;40.182;44.498;2023-07-16T06:59:18;89987.05;;;24.78;35.80586
80869;BME280;70295;40.182;44.498;2023-07-16T07:01:18;89984.3;;;24.85;35.61738
80869;BME280;70295;40.182;44.498;2023-07-16T07:03:18;89978.01;;;24.91;35.48359
80869;BME280;70295;40.182;44.498;2023-07-16T07:05:18;89983.54;;;24.97;35.43281
80869;BME280;70295;40.182;44.498;2023-07-16T07:07:18;89985.09;;;25.06;35.36934
80869;BME280;70295;40.182;44.498;2023-07-16T07:09:18;89980.06;;;25.14;35.28535
80869;BME280;70295;40.182;44.498;2023-07-16T07:11:18;89976.53;;;25.23;35.07441
80869;BME280;70295;40.182;44.498;2023-07-16T07:13:18;89983.42;;;25.3;35.01094
80869;BME280;70295;40.182;44.498;2023-07-16T07:15:18;89978.98;;;25.38;34.8918
80869;BME280;70295;40.182;44.498;2023-07-16T07:17:18;89976.09;;;25.45;34.60957
80869;BME280;70295;40.182;44.498;2023-07-16T07:19:18;89974.92;;;25.51;34.51094
80869;BME280;70295;40.182;44.498;2023-07-16T07:21:18;89970.59;;;25.52;34.43184
80869;BME280;70295;40.182;44.498;2023-07-16T07:23:18;89971.67;;;25.6;34.50703
80869;BME280;70295;40.182;44.498;2023-07-16T07:25:18;89971.27;;;25.74;34.50703
80869;BME280;70295;40.182;44.498;2023-07-16T07:27:18;89967.11;;;25.88;34.41328
80869;BME280;70295;40.182;44.498;2023-07-16T07:29:18;89967.76;;;25.98;33.99629
80869;BME280;70295;40.182;44.498;2023-07-16T07:31:18;89967.75;;;26;33.72285
80869;BME280;70295;40.182;44.498;2023-07-16T07:33:18;89970.51;;;26.05;33.61055
80869;BME280;70295;40.182;44.498;2023-07-16T07:35:18;89966.58;;;26.08;33.47578
80869;BME280;70295;40.182;44.498;2023-07-16T07:37:18;89967.69;;;26.1;33.3166
80869;BME280;70295;40.182;44.498;2023-07-16T07:39:18;89959.6;;;26.15;33.27363
80869;BME280;70295;40.182;44.498;2023-07-16T07:41:18;89955.27;;;26.24;33.25801
80869;BME280;70295;40.182;44.498;2023-07-16T07:43:18;89954.71;;;26.31;33.18184
80869;BME280;70295;40.182;44.498;2023-07-16T07:45:18;89954.48;;;26.38;33.08418
80869;BME280;70295;40.182;44.498;2023-07-16T07:47:18;89949.89;;;26.43;33.09883
80869;BME280;70295;40.182;44.498;2023-07-16T07:49:18;89950.06;;;26.41;32.85664
80869;BME280;70295;40.182;44.498;2023-07-16T07:51:18;89949.42;;;26.42;32.82344
80869;BME280;70295;40.182;44.498;2023-07-16T07:53:18;89947.98;;;26.46;32.75703
80869;BME280;70295;40.182;44.498;2023-07-16T07:55:18;89946.68;;;26.47;32.74629
80869;BME280;70295;40.182;44.498;2023-07-16T07:57:19;89938.69;;;26.48;32.70039
80869;BME280;70295;40.182;44.498;2023-07-16T07:59:18;89936.78;;;26.51;32.97969
80869;BME280;70295;40.182;44.498;2023-07-16T08:01:18;89937.31;;;26.56;33.04023
80869;BME280;70295;40.182;44.498;2023-07-16T08:03:18;89937.31;;;26.63;32.73457
80869;BME280;70295;40.182;44.498;2023-07-16T08:05:18;89931.56;;;26.64;32.68965
80869;BME280;70295;40.182;44.498;2023-07-16T08:07:18;89930.39;;;26.65;32.85078
80869;BME280;70295;40.182;44.498;2023-07-16T08:09:18;89928.15;;;26.68;32.95723
80869;BME280;70295;40.182;44.498;2023-07-16T08:11:18;89921.86;;;26.69;32.95723
80869;BME280;70295;40.182;44.498;2023-07-16T08:13:18;89921.98;;;26.71;33.06367
80869;BME280;70295;40.182;44.498;2023-07-16T08:15:18;89917.48;;;26.75;32.88203
80869;BME280;70295;40.182;44.498;2023-07-16T08:17:18;89912.56;;;26.81;32.86348
80869;BME280;70295;40.182;44.498;2023-07-16T08:19:18;89911.05;;;26.87;32.62519
80869;BME280;70295;40.182;44.498;2023-07-16T08:21:18;89909.7;;;26.92;32.42207
80869;BME280;70295;40.182;44.498;2023-07-16T08:23:18;89909.7;;;26.98;32.09199
80869;BME280;70295;40.182;44.498;2023-07-16T08:25:18;89898.91;;;27.03;31.65742
80869;BME280;70295;40.182;44.498;2023-07-16T08:27:18;89904.47;;;27.06;31.27949
80869;BME280;70295;40.182;44.498;2023-07-16T08:29:18;89897.18;;;27.08;31.02754
80869;BME280;70295;40.182;44.498;2023-07-16T08:31:18;89896.02;;;27.09;30.92402
80869;BME280;70295;40.182;44.498;2023-07-16T08:33:18;89891.26;;;27.09;30.6584
80869;BME280;70295;40.182;44.498;2023-07-16T08:35:18;89889.29;;;27.13;30.31562
80869;BME280;70295;40.182;44.498;2023-07-16T08:37:18;89893.99;;;27.15;30.07441
80869;BME280;70295;40.182;44.498;2023-07-16T08:39:18;89887.58;;;27.16;30.00605
80869;BME280;70295;40.182;44.498;2023-07-16T08:41:18;89881.8;;;27.17;29.89082
80869;BME280;70295;40.182;44.498;2023-07-16T08:43:18;89879.88;;;27.18;29.78828
80869;BME280;70295;40.182;44.498;2023-07-16T08:45:18;89879.22;;;27.22;29.79121
80869;BME280;70295;40.182;44.498;2023-07-16T08:47:18;89877.41;;;27.23;29.76875
80869;BME280;70295;40.182;44.498;2023-07-16T08:49:18;89867.59;;;27.23;29.69941
80869;BME280;70295;40.182;44.498;2023-07-16T08:51:18;89867.42;;;27.25;29.76973
80869;BME280;70295;40.182;44.498;2023-07-16T08:53:18;89862.5;;;27.25;29.60762
80869;BME280;70295;40.182;44.498;2023-07-16T08:55:18;89861.21;;;27.21;29.6623
80869;BME280;70295;40.182;44.498;2023-07-16T08:57:18;89857.83;;;27.22;29.64082
80869;BME280;70295;40.182;44.498;2023-07-16T08:59:18;89853.99;;;27.22;29.65254
80869;BME280;70295;40.182;44.498;2023-07-16T09:01:18;89853.02;;;27.24;29.96504
80869;BME280;70295;40.182;44.498;2023-07-16T09:03:18;89852.27;;;27.29;30.18769
80869;BME280;70295;40.182;44.498;2023-07-16T09:05:22;89847.2;;;27.32;29.85566
80869;BME280;70295;40.182;44.498;2023-07-16T09:07:18;89844.64;;;27.35;29.69551
80869;BME280;70295;40.182;44.498;2023-07-16T09:11:18;89842.02;;;27.4;29.14473
80869;BME280;70295;40.182;44.498;2023-07-16T09:13:18;89835.59;;;27.36;29.08418
80869;BME280;70295;40.182;44.498;2023-07-16T09:15:18;89828.75;;;27.34;29.11738
80869;BME280;70295;40.182;44.498;2023-07-16T09:19:18;89823.3;;;27.43;29.38984
80869;BME280;70295;40.182;44.498;2023-07-16T09:21:18;89822.5;;;27.48;29.21894
80869;BME280;70295;40.182;44.498;2023-07-16T09:23:18;89818.81;;;27.5;28.90937
80869;BME280;70295;40.182;44.498;2023-07-16T09:25:18;89818.52;;;27.51;28.66719
80869;BME280;70295;40.182;44.498;2023-07-16T09:27:18;89820.63;;;27.52;28.57539
80869;BME280;70295;40.182;44.498;2023-07-16T09:29:18;89819.28;;;27.51;28.57441
80869;BME280;70295;40.182;44.498;2023-07-16T09:31:18;89817.17;;;27.52;28.72578
80869;BME280;70295;40.182;44.498;2023-07-16T09:33:19;89818.25;;;27.54;28.72676
80869;BME280;70295;40.182;44.498;2023-07-16T09:35:18;89815.25;;;27.53;28.59883
80869;BME280;70295;40.182;44.498;2023-07-16T09:37:18;89814.03;;;27.53;28.57539
80869;BME280;70295;40.182;44.498;2023-07-16T09:39:18;89809.5;;;27.52;28.71309
80869;BME280;70295;40.182;44.498;2023-07-16T09:41:18;89802.62;;;27.55;28.93574
80869;BME280;70295;40.182;44.498;2023-07-16T09:43:18;89799.3;;;27.6;28.98457
80869;BME280;70295;40.182;44.498;2023-07-16T09:45:18;89797.8;;;27.64;29.06855
80869;BME280;70295;40.182;44.498;2023-07-16T09:47:18;89791.55;;;27.69;29.0373
80869;BME280;70295;40.182;44.498;2023-07-16T09:49:18;89789.17;;;27.71;28.89961
80869;BME280;70295;40.182;44.498;2023-07-16T09:51:18;89786.13;;;27.72;28.77363
80869;BME280;70295;40.182;44.498;2023-07-16T09:53:18;89786.78;;;27.69;28.57441
80869;BME280;70295;40.182;44.498;2023-07-16T09:55:18;89781.61;;;27.65;28.63008
80869;BME280;70295;40.182;44.498;2023-07-16T09:57:18;89777.79;;;27.63;28.59394
80869;BME280;70295;40.182;44.498;2023-07-16T09:59:20;89775.41;;;27.63;28.65156
80869;BME280;70295;40.182;44.498;2023-07-16T10:01:18;89773.2;;;27.63;28.85957
80869;BME280;70295;40.182;44.498;2023-07-16T10:03:18;89759.55;;;27.65;29.01094
80869;BME280;70295;40.182;44.498;2023-07-16T10:05:18;89770.39;;;27.68;29.10566
80869;BME280;70295;40.182;44.498;2023-07-16T10:07:23;89767.11;;;27.72;29.07344
80869;BME280;70295;40.182;44.498;2023-07-16T10:11:18;89763.83;;;27.78;28.96211
80869;BME280;70295;40.182;44.498;2023-07-16T10:13:18;89764.94;;;27.8;28.90547
80869;BME280;70295;40.182;44.498;2023-07-16T10:15:24;89762.62;;;27.82;28.86055
80869;BME280;70295;40.182;44.498;2023-07-16T10:19:22;89754.36;;;27.86;29.07148
80869;BME280;70295;40.182;44.498;2023-07-16T10:21:21;89753.5;;;27.89;29.31562
80869;BME280;70295;40.182;44.498;2023-07-16T10:23:18;89754.54;;;27.92;29.41035
80869;BME280;70295;40.182;44.498;2023-07-16T10:27:26;89750.91;;;27.95;29.41328